createdAt,value
2022-07-26T00:01:45.761Z,101329.63
2022-07-26T00:04:12.533Z,101333.34
2022-07-26T00:06:39.395Z,101336.09
2022-07-26T00:09:11.149Z,101335.44
2022-07-26T00:11:38.172Z,101333.94
2022-07-26T00:14:06.817Z,101334.38
2022-07-26T00:16:36.236Z,101333.09
2022-07-26T00:19:04.645Z,101330.97
2022-07-26T00:21:31.791Z,101342.84
2022-07-26T00:24:00.584Z,101339.03
2022-07-26T00:26:27.113Z,101329.19
2022-07-26T00:28:53.667Z,101343.47
2022-07-26T00:31:20.413Z,101345.41
2022-07-26T00:33:49.262Z,101328.75
2022-07-26T00:36:15.942Z,101345.59
2022-07-26T00:38:42.649Z,101341.75
2022-07-26T00:41:09.415Z,101341.31
2022-07-26T00:43:38.282Z,101350.50
2022-07-26T00:46:05.063Z,101356.03
2022-07-26T00:48:33.961Z,101356.03
2022-07-26T00:51:00.672Z,101350.88
2022-07-26T00:53:27.337Z,101348.97
2022-07-26T00:55:53.964Z,101350.03
2022-07-26T00:58:20.549Z,101344.03
2022-07-26T01:00:47.308Z,101345.75
2022-07-26T01:03:13.953Z,101349.56
2022-07-26T01:05:43.010Z,101337.94
2022-07-26T01:08:09.722Z,101349.94
2022-07-26T01:10:40.031Z,101344.41
2022-07-26T01:13:06.693Z,101339.97
2022-07-26T01:15:35.659Z,101331.19
2022-07-26T01:18:02.229Z,101334.97
2022-07-26T01:20:28.890Z,101335.47
2022-07-26T01:22:55.482Z,101338.88
2022-07-26T01:25:33.090Z,101347.19
2022-07-26T01:28:19.759Z,101343.13
2022-07-26T01:30:47.876Z,101338.22
2022-07-26T01:33:14.498Z,101344.41
2022-07-26T01:35:41.085Z,101341.41
2022-07-26T01:38:10.061Z,101335.38
2022-07-26T01:40:36.663Z,101334.81
2022-07-26T01:43:03.640Z,101292.56
2022-07-26T01:45:30.407Z,101336.63
2022-07-26T01:47:57.042Z,101343.88
2022-07-26T01:50:23.634Z,101343.69
2022-07-26T01:52:50.193Z,101342.16
2022-07-26T01:55:16.864Z,101344.47
2022-07-26T01:57:45.831Z,101341.31
2022-07-26T02:00:12.996Z,101283.94
2022-07-26T02:02:39.664Z,101322.78
2022-07-26T02:05:09.109Z,101350.25
2022-07-26T02:07:44.578Z,101354.09
2022-07-26T02:10:12.879Z,101347.22
2022-07-26T02:12:41.058Z,101356.66
2022-07-26T02:15:08.939Z,101352.56
2022-07-26T02:17:35.622Z,101353.63
2022-07-26T02:20:02.323Z,101353.84
2022-07-26T02:22:31.215Z,101352.13
2022-07-26T02:25:02.980Z,101343.81
2022-07-26T02:27:31.464Z,101343.09
2022-07-26T02:30:00.574Z,101341.19
2022-07-26T02:32:27.121Z,101357.59
2022-07-26T02:34:55.942Z,101369.69
2022-07-26T02:37:22.496Z,101360.09
2022-07-26T02:39:49.092Z,101362.38
2022-07-26T02:42:17.905Z,101368.78
2022-07-26T02:44:44.833Z,101365.63
2022-07-26T02:47:12.713Z,101364.03
2022-07-26T02:49:39.413Z,101374.72
2022-07-26T02:52:06.034Z,101342.81
2022-07-26T02:54:32.686Z,101369.94
2022-07-26T02:57:01.732Z,101373.31
2022-07-26T02:59:28.420Z,101370.19
2022-07-26T03:01:55.160Z,101381.91
2022-07-26T03:04:21.884Z,101391.66
2022-07-26T03:06:48.441Z,101380.69
2022-07-26T03:09:17.225Z,101368.91
2022-07-26T03:11:43.790Z,101380.13
2022-07-26T03:14:10.758Z,101384.81
2022-07-26T03:16:38.916Z,101397.00
2022-07-26T03:19:05.522Z,101391.59
2022-07-26T03:21:32.250Z,101393.31
2022-07-26T03:23:58.844Z,101389.47
2022-07-26T03:26:29.297Z,101392.66
2022-07-26T03:28:56.298Z,101390.06
2022-07-26T03:31:23.611Z,101391.69
2022-07-26T03:33:50.313Z,101396.19
2022-07-26T03:36:19.238Z,101378.31
2022-07-26T03:38:45.805Z,101405.41
2022-07-26T03:41:13.641Z,101408.34
2022-07-26T03:43:40.684Z,101422.84
2022-07-26T03:46:09.466Z,101410.44
2022-07-26T03:48:36.161Z,101421.16
2022-07-26T03:51:05.122Z,101415.25
2022-07-26T03:53:31.719Z,101427.91
2022-07-26T03:56:17.650Z,101428.19
2022-07-26T03:58:44.233Z,101423.34
2022-07-26T04:01:13.275Z,101408.63
2022-07-26T04:03:42.178Z,101427.69
2022-07-26T04:06:16.595Z,101429.88
2022-07-26T04:08:46.778Z,101418.81
2022-07-26T04:11:13.387Z,101425.31
2022-07-26T04:13:40.542Z,101398.44
2022-07-26T04:16:07.391Z,101417.09
2022-07-26T04:18:34.029Z,101409.84
2022-07-26T04:21:00.811Z,101402.13
2022-07-26T04:23:27.544Z,101436.16
2022-07-26T04:25:54.236Z,101433.19
2022-07-26T04:28:23.284Z,101433.38
2022-07-26T04:30:52.187Z,101405.50
2022-07-26T04:33:18.860Z,101434.16
2022-07-26T04:35:47.642Z,101438.56
2022-07-26T04:38:14.639Z,101429.78
2022-07-26T04:40:43.675Z,101434.06
2022-07-26T04:43:15.350Z,101445.69
2022-07-26T04:45:43.620Z,101445.88
2022-07-26T04:48:10.345Z,101440.34
2022-07-26T04:50:39.409Z,101448.72
2022-07-26T04:53:06.044Z,101449.63
2022-07-26T04:55:32.777Z,101455.91
2022-07-26T04:58:03.870Z,101453.72
2022-07-26T05:00:30.475Z,101448.31
2022-07-26T05:02:59.178Z,101449.22
2022-07-26T05:05:31.036Z,101438.22
2022-07-26T05:07:59.756Z,101437.63
2022-07-26T05:10:32.734Z,101440.00
2022-07-26T05:12:59.482Z,101441.25
2022-07-26T05:15:33.008Z,101443.59
2022-07-26T05:18:10.283Z,101444.88
2022-07-26T05:20:39.321Z,101459.75
2022-07-26T05:23:08.746Z,101450.38
2022-07-26T05:25:35.559Z,101453.75
2022-07-26T05:28:04.622Z,101452.06
2022-07-26T05:30:33.701Z,101464.16
2022-07-26T05:33:00.364Z,101466.47
2022-07-26T05:35:27.080Z,101458.53
2022-07-26T05:37:53.713Z,101473.22
2022-07-26T05:40:20.268Z,101471.22
2022-07-26T05:42:47.237Z,101460.53
2022-07-26T05:45:16.412Z,101471.25
2022-07-26T05:47:43.029Z,101476.97
2022-07-26T05:50:10.214Z,101480.28
2022-07-26T05:52:36.849Z,101487.06
2022-07-26T05:55:03.775Z,101474.09
2022-07-26T05:57:30.810Z,101477.59
2022-07-26T05:59:57.639Z,101493.66
2022-07-26T06:02:24.339Z,101497.22
2022-07-26T06:04:51.017Z,101503.38
2022-07-26T06:07:17.617Z,101479.94
2022-07-26T06:09:44.425Z,101489.75
2022-07-26T06:12:11.028Z,101463.75
2022-07-26T06:14:37.615Z,101486.78
2022-07-26T06:17:04.744Z,101484.88
2022-07-26T06:19:31.900Z,101489.31
2022-07-26T06:22:00.244Z,101490.66
2022-07-26T06:24:29.868Z,101499.22
2022-07-26T06:27:04.957Z,101492.63
2022-07-26T06:29:34.542Z,101502.06
2022-07-26T06:32:01.422Z,101505.53
2022-07-26T06:34:28.625Z,101512.47
2022-07-26T06:36:57.188Z,101515.78
2022-07-26T06:39:25.683Z,101507.38
2022-07-26T06:41:57.467Z,101521.91
2022-07-26T06:44:24.654Z,101518.09
2022-07-26T06:46:52.077Z,101532.13
2022-07-26T06:49:23.437Z,101517.44
2022-07-26T06:51:53.082Z,101524.63
2022-07-26T06:54:22.615Z,101533.00
2022-07-26T06:56:56.887Z,101537.50
2022-07-26T06:59:25.647Z,101531.63
2022-07-26T07:01:59.305Z,101544.66
2022-07-26T07:04:34.326Z,101536.91
2022-07-26T07:07:10.738Z,101529.50
2022-07-26T07:09:40.494Z,101521.91
2022-07-26T07:12:10.105Z,101545.06
2022-07-26T07:14:37.500Z,101544.25
2022-07-26T07:17:10.372Z,101547.84
2022-07-26T07:19:41.937Z,101552.41
2022-07-26T07:22:12.019Z,101556.19
2022-07-26T07:24:42.613Z,101561.69
2022-07-26T07:27:10.610Z,101557.63
2022-07-26T07:29:37.631Z,101552.66
2022-07-26T07:32:07.878Z,101568.84
2022-07-26T07:34:42.692Z,101572.00
2022-07-26T07:37:10.586Z,101578.41
2022-07-26T07:39:41.000Z,101594.16
2022-07-26T07:42:08.081Z,101599.00
2022-07-26T07:44:34.730Z,101596.72
2022-07-26T07:47:01.904Z,101597.59
2022-07-26T07:49:28.659Z,101595.00
2022-07-26T07:51:55.807Z,101607.66
2022-07-26T07:54:22.443Z,101599.53
2022-07-26T07:56:49.318Z,101604.00
2022-07-26T07:59:18.996Z,101614.66
2022-07-26T08:01:50.060Z,101588.59
2022-07-26T08:04:17.007Z,101614.88
2022-07-26T08:06:50.269Z,101615.97
2022-07-26T08:09:18.854Z,101612.56
2022-07-26T08:11:45.874Z,101612.78
2022-07-26T08:14:20.123Z,101609.56
2022-07-26T08:16:47.057Z,101613.78
2022-07-26T08:19:14.501Z,101616.38
2022-07-26T08:21:42.972Z,101615.03
2022-07-26T08:24:10.861Z,101615.72
2022-07-26T08:26:38.350Z,101619.16
2022-07-26T08:29:05.283Z,101626.53
2022-07-26T08:31:32.091Z,101639.00
2022-07-26T08:33:58.814Z,101648.03
2022-07-26T08:36:31.822Z,101644.34
2022-07-26T08:39:01.839Z,101640.34
2022-07-26T08:41:29.198Z,101649.09
2022-07-26T08:44:06.508Z,101642.31
2022-07-26T08:46:39.784Z,101647.91
2022-07-26T08:49:08.645Z,101651.75
2022-07-26T08:51:39.679Z,101636.31
2022-07-26T08:54:06.997Z,101648.31
2022-07-26T08:56:40.633Z,101648.31
2022-07-26T08:59:21.415Z,101659.88
2022-07-26T09:01:52.018Z,101651.91
2022-07-26T09:04:31.834Z,101663.31
2022-07-26T09:07:13.352Z,101666.72
2022-07-26T09:09:58.382Z,101679.06
2022-07-26T09:12:26.088Z,101677.31
2022-07-26T09:14:53.779Z,101675.25
2022-07-26T09:17:22.166Z,101677.38
2022-07-26T09:20:09.799Z,101674.53
2022-07-26T09:22:41.257Z,101676.22
2022-07-26T09:25:21.622Z,101685.84
2022-07-26T09:27:48.254Z,101676.88
2022-07-26T09:30:16.613Z,101676.75
2022-07-26T09:33:13.797Z,101682.44
2022-07-26T09:35:52.275Z,101695.66
2022-07-26T09:38:19.882Z,101689.66
2022-07-26T09:40:50.883Z,101686.56
2022-07-26T09:43:24.025Z,101681.38
2022-07-26T09:46:07.363Z,101694.50
2022-07-26T09:49:09.428Z,101700.81
2022-07-26T09:51:42.005Z,101695.97
2022-07-26T09:54:11.012Z,101698.72
2022-07-26T09:56:50.315Z,101686.47
2022-07-26T09:59:19.692Z,101685.06
2022-07-26T10:01:53.596Z,101693.78
2022-07-26T10:04:21.522Z,101701.56
2022-07-26T10:06:48.716Z,101686.44
2022-07-26T10:09:18.882Z,101702.75
2022-07-26T10:12:02.597Z,101704.13
2022-07-26T10:14:37.776Z,101702.84
2022-07-26T10:17:31.470Z,101700.66
2022-07-26T10:20:01.815Z,101697.81
2022-07-26T10:22:33.939Z,101695.97
2022-07-26T10:25:19.125Z,101702.84
2022-07-26T10:27:53.689Z,101705.19
2022-07-26T10:30:20.432Z,101713.88
2022-07-26T10:33:07.623Z,101710.56
2022-07-26T10:35:34.166Z,101717.47
2022-07-26T10:38:03.981Z,101713.63
2022-07-26T10:40:31.091Z,101735.03
2022-07-26T10:43:39.144Z,101742.09
2022-07-26T10:46:16.489Z,101744.59
2022-07-26T10:49:00.285Z,101745.78
2022-07-26T10:51:32.509Z,101741.88
2022-07-26T10:54:10.527Z,101743.31
2022-07-26T10:56:38.364Z,101742.75
2022-07-26T10:59:06.462Z,101748.94
2022-07-26T11:01:33.999Z,101714.53
2022-07-26T11:04:00.882Z,101759.56
2022-07-26T11:06:30.473Z,101756.31
2022-07-26T11:08:57.141Z,101764.69
2022-07-26T11:11:32.544Z,101766.69
2022-07-26T11:14:10.403Z,101763.13
2022-07-26T11:16:41.830Z,101759.56
2022-07-26T11:19:23.281Z,101766.50
2022-07-26T11:21:59.120Z,101768.88
2022-07-26T11:24:26.880Z,101768.47
2022-07-26T11:26:54.045Z,101769.81
2022-07-26T11:29:40.516Z,101762.34
2022-07-26T11:32:18.556Z,101758.31
2022-07-26T11:34:46.461Z,101763.09
2022-07-26T11:37:13.789Z,101767.38
2022-07-26T11:39:43.119Z,101748.28
2022-07-26T11:42:19.616Z,101771.00
2022-07-26T11:44:53.956Z,101774.28
2022-07-26T11:47:24.507Z,101783.94
2022-07-26T11:50:12.381Z,101771.69
2022-07-26T11:52:39.117Z,101771.66
2022-07-26T11:55:06.847Z,101780.63
2022-07-26T11:57:33.476Z,101791.56
2022-07-26T12:00:01.227Z,101796.00
2022-07-26T12:02:31.821Z,101794.88
2022-07-26T12:05:21.943Z,101790.78
2022-07-26T12:08:04.140Z,101794.81
2022-07-26T12:10:33.218Z,101785.31
2022-07-26T12:13:08.035Z,101787.28
2022-07-26T12:15:47.158Z,101777.50
2022-07-26T12:18:30.819Z,101778.09
2022-07-26T12:21:07.699Z,101773.19
2022-07-26T12:23:49.327Z,101778.16
2022-07-26T12:26:28.342Z,101781.03
2022-07-26T12:28:56.061Z,101774.22
2022-07-26T12:31:27.415Z,101768.88
2022-07-26T12:33:54.185Z,101783.66
2022-07-26T12:36:27.506Z,101780.63
2022-07-26T12:39:00.207Z,101783.81
2022-07-26T12:41:40.250Z,101786.50
2022-07-26T12:44:11.879Z,101774.25
2022-07-26T12:46:39.245Z,101782.41
2022-07-26T12:49:06.131Z,101784.84
2022-07-26T12:51:35.621Z,101786.31
2022-07-26T12:59:01.374Z,101784.91
2022-07-26T13:01:29.519Z,101775.03
2022-07-26T13:03:56.437Z,101788.06
2022-07-26T13:06:23.091Z,101784.28
2022-07-26T13:08:50.179Z,101788.88
2022-07-26T13:11:16.873Z,101795.63
2022-07-26T13:13:46.014Z,101780.84
2022-07-26T13:16:14.796Z,101794.25
2022-07-26T13:18:41.370Z,101787.28
2022-07-26T13:21:08.034Z,101793.19
2022-07-26T13:23:35.666Z,101792.75
2022-07-26T13:26:03.595Z,101797.84
2022-07-26T13:28:30.873Z,101806.41
2022-07-26T13:30:57.619Z,101793.06
2022-07-26T13:33:24.313Z,101788.19
2022-07-26T13:35:50.864Z,101793.38
2022-07-26T13:38:19.673Z,101801.63
2022-07-26T13:40:46.284Z,101809.34
2022-07-26T13:43:12.847Z,101807.16
2022-07-26T13:45:39.437Z,101820.19
2022-07-26T13:48:08.612Z,101819.00
2022-07-26T13:50:38.223Z,101807.16
2022-07-26T13:53:04.828Z,101792.94
2022-07-26T13:55:31.446Z,101797.06
2022-07-26T13:58:00.256Z,101799.25
2022-07-26T14:00:29.273Z,101804.03
2022-07-26T14:02:59.073Z,101804.75
2022-07-26T14:05:28.745Z,101811.53
2022-07-26T14:07:55.649Z,101812.22
2022-07-26T14:10:25.706Z,101807.69
2022-07-26T14:12:52.610Z,101814.59
2022-07-26T14:15:22.543Z,101815.16
2022-07-26T14:17:51.417Z,101816.22
2022-07-26T14:20:18.268Z,101828.81
2022-07-26T14:22:45.366Z,101827.53
2022-07-26T14:25:14.944Z,101828.00
2022-07-26T14:27:41.520Z,101833.63
2022-07-26T14:30:08.423Z,101833.41
2022-07-26T14:32:35.251Z,101825.69
2022-07-26T14:35:02.014Z,101826.59
2022-07-26T14:37:44.121Z,101813.97
2022-07-26T14:40:13.833Z,101821.78
2022-07-26T14:42:40.711Z,101832.28
2022-07-26T14:45:10.374Z,101825.44
2022-07-26T14:47:40.198Z,101827.13
2022-07-26T14:50:08.397Z,101803.00
2022-07-26T14:52:40.997Z,101823.31
2022-07-26T14:55:08.871Z,101817.50
2022-07-26T14:57:39.507Z,101797.94
2022-07-26T15:00:09.112Z,101813.31
2022-07-26T15:02:37.743Z,101816.94
2022-07-26T15:05:04.623Z,101824.66
2022-07-26T15:07:33.430Z,101829.13
2022-07-26T15:09:59.976Z,101822.72
2022-07-26T15:12:26.623Z,101827.78
2022-07-26T15:14:53.219Z,101829.09
2022-07-26T15:17:20.415Z,101815.47
2022-07-26T15:19:47.255Z,101818.00
2022-07-26T15:22:17.410Z,101825.22
2022-07-26T15:24:46.428Z,101826.69
2022-07-26T15:27:13.189Z,101824.84
2022-07-26T15:29:40.165Z,101824.34
2022-07-26T15:32:09.080Z,101824.06
2022-07-26T15:34:38.060Z,101832.50
2022-07-26T15:37:04.609Z,101828.63
2022-07-26T15:39:31.260Z,101818.78
2022-07-26T15:42:05.398Z,101832.44
2022-07-26T15:44:34.299Z,101836.88
2022-07-26T15:47:00.847Z,101834.19
2022-07-26T15:49:27.503Z,101825.34
2022-07-26T15:51:54.222Z,101840.94
2022-07-26T15:54:20.860Z,101838.16
2022-07-26T15:56:47.573Z,101842.31
2022-07-26T15:59:14.186Z,101837.16
2022-07-26T16:01:43.074Z,101831.00
2022-07-26T16:04:10.113Z,101842.78
2022-07-26T16:06:37.040Z,101841.06
2022-07-26T16:09:17.883Z,101840.00
2022-07-26T16:11:45.542Z,101839.25
2022-07-26T16:14:12.598Z,101835.34
2022-07-26T16:16:39.236Z,101836.34
2022-07-26T16:19:05.878Z,101835.03
2022-07-26T16:21:32.601Z,101837.00
2022-07-26T16:24:04.449Z,101834.22
2022-07-26T16:26:33.596Z,101833.25
2022-07-26T16:29:00.820Z,101837.56
2022-07-26T16:31:27.716Z,101847.69
2022-07-26T16:33:59.149Z,101842.53
2022-07-26T16:36:25.796Z,101844.34
2022-07-26T16:38:52.377Z,101857.69
2022-07-26T16:41:19.234Z,101847.78
2022-07-26T16:43:48.175Z,101846.22
2022-07-26T16:46:17.580Z,101833.59
2022-07-26T16:48:44.400Z,101851.91
2022-07-26T16:51:13.465Z,101857.13
2022-07-26T16:53:41.373Z,101849.91
2022-07-26T16:56:08.029Z,101850.88
2022-07-26T16:58:35.958Z,101845.16
2022-07-26T17:01:02.808Z,101842.31
2022-07-26T17:03:29.534Z,101851.75
2022-07-26T17:05:56.075Z,101857.88
2022-07-26T17:08:22.995Z,101859.53
2022-07-26T17:10:49.573Z,101858.19
2022-07-26T17:13:19.381Z,101857.91
2022-07-26T17:15:47.751Z,101864.19
2022-07-26T17:18:14.438Z,101850.44
2022-07-26T17:20:42.144Z,101881.47
2022-07-26T17:23:11.268Z,101881.19
2022-07-26T17:25:37.910Z,101887.59
2022-07-26T17:28:04.798Z,101881.09
2022-07-26T17:30:31.446Z,101884.25
2022-07-26T17:32:58.031Z,101896.78
2022-07-26T17:35:24.767Z,101885.56
2022-07-26T17:37:55.617Z,101887.84
2022-07-26T17:40:23.560Z,101886.34
2022-07-26T17:42:52.684Z,101888.41
2022-07-26T17:45:19.383Z,101873.31
2022-07-26T17:47:46.828Z,101885.06
2022-07-26T17:50:35.136Z,101890.91
2022-07-26T17:53:00.087Z,101888.31
2022-07-26T17:55:29.227Z,101888.31
2022-07-26T17:57:55.804Z,101893.84
2022-07-26T18:00:23.224Z,101884.41
2022-07-26T18:02:58.257Z,101902.41
2022-07-26T18:05:32.248Z,101894.19
2022-07-26T18:08:00.817Z,101897.31
2022-07-26T18:10:28.331Z,101899.44
2022-07-26T18:12:55.562Z,101911.72
2022-07-26T18:15:22.472Z,101908.13
2022-07-26T18:17:49.073Z,101907.47
2022-07-26T18:20:15.809Z,101913.19
2022-07-26T18:22:42.355Z,101916.50
2022-07-26T18:25:12.714Z,101907.38
2022-07-26T18:27:39.299Z,101903.28
2022-07-26T18:30:08.854Z,101900.94
2022-07-26T18:32:35.613Z,101906.66
2022-07-26T18:35:02.354Z,101915.97
2022-07-26T18:37:28.936Z,101916.34
2022-07-26T18:39:57.855Z,101913.25
2022-07-26T18:42:25.092Z,101900.38
2022-07-26T18:44:51.877Z,101903.31
2022-07-26T18:47:20.748Z,101897.81
2022-07-26T18:49:47.327Z,101892.31
2022-07-26T18:52:14.046Z,101898.91
2022-07-26T18:54:41.475Z,101900.25
2022-07-26T18:57:08.080Z,101909.09
2022-07-26T18:59:34.652Z,101906.53
2022-07-26T19:02:03.640Z,101904.34
2022-07-26T19:04:30.441Z,101906.41
2022-07-26T19:06:59.716Z,101900.88
2022-07-26T19:09:26.335Z,101905.72
2022-07-26T19:11:52.938Z,101879.84
2022-07-26T19:14:19.534Z,101906.63
2022-07-26T19:16:46.155Z,101914.75
2022-07-26T19:19:13.151Z,101910.28
2022-07-26T19:21:44.869Z,101911.88
2022-07-26T19:24:11.419Z,101922.59
2022-07-26T19:26:38.127Z,101912.25
2022-07-26T19:29:04.737Z,101919.84
2022-07-26T19:31:32.052Z,101928.66
2022-07-26T19:33:58.648Z,101928.31
2022-07-26T19:36:28.409Z,101937.97
2022-07-26T19:38:56.715Z,101929.19
2022-07-26T19:41:23.425Z,101938.50
2022-07-26T19:43:49.953Z,101948.88
2022-07-26T19:46:16.615Z,101955.56
2022-07-26T19:48:45.654Z,101942.59
2022-07-26T19:51:14.797Z,101958.81
2022-07-26T19:53:41.614Z,101966.56
2022-07-26T19:56:08.198Z,101967.06
2022-07-26T19:58:39.989Z,101965.53
2022-07-26T20:01:06.621Z,101977.78
2022-07-26T20:03:33.329Z,101972.59
2022-07-26T20:06:01.137Z,101974.66
2022-07-26T20:08:27.748Z,101977.59
2022-07-26T20:10:56.698Z,101979.28
2022-07-26T20:13:23.325Z,101978.59
2022-07-26T20:15:50.005Z,101981.00
2022-07-26T20:18:19.577Z,101989.13
2022-07-26T20:20:48.529Z,101982.56
2022-07-26T20:23:15.081Z,101983.94
2022-07-26T20:25:41.680Z,101986.19
2022-07-26T20:28:08.242Z,101990.47
2022-07-26T20:30:34.887Z,101991.84
2022-07-26T20:33:03.777Z,101990.44
2022-07-26T20:35:31.368Z,102000.59
2022-07-26T20:37:57.943Z,101998.88
2022-07-26T20:40:27.350Z,101994.56
2022-07-26T20:42:53.948Z,101990.75
2022-07-26T20:45:25.207Z,101991.47
2022-07-26T20:47:53.393Z,101993.50
2022-07-26T20:50:20.681Z,101997.31
2022-07-26T20:52:48.632Z,102002.97
2022-07-26T20:55:17.953Z,102006.91
2022-07-26T20:57:45.756Z,101996.53
2022-07-26T21:00:14.289Z,102006.56
2022-07-26T21:02:41.005Z,102007.22
2022-07-26T21:05:08.088Z,102014.78
2022-07-26T21:07:58.562Z,102022.53
2022-07-26T21:10:21.718Z,102024.03
2022-07-26T21:12:49.653Z,102026.41
2022-07-26T21:15:16.267Z,102025.00
2022-07-26T21:17:45.153Z,102014.94
2022-07-26T21:20:11.773Z,102025.97
2022-07-26T21:22:38.311Z,102038.16
2022-07-26T21:25:05.976Z,102037.63
2022-07-26T21:27:32.581Z,102030.50
2022-07-26T21:29:59.631Z,102032.38
2022-07-26T21:32:31.553Z,102034.06
2022-07-26T21:35:01.211Z,102033.66
2022-07-26T21:37:27.934Z,102029.34
2022-07-26T21:39:54.513Z,102020.31
2022-07-26T21:42:21.356Z,102035.34
2022-07-26T21:44:55.821Z,102048.72
2022-07-26T21:47:25.017Z,102046.13
2022-07-26T21:49:53.692Z,102046.44
2022-07-26T21:52:20.253Z,102046.75
2022-07-26T21:54:47.081Z,102052.44
2022-07-26T21:57:16.641Z,102050.00
2022-07-26T21:59:43.272Z,102045.69
2022-07-26T22:02:14.478Z,102019.88
2022-07-26T22:04:46.554Z,102045.41
2022-07-26T22:07:13.276Z,102040.41
2022-07-26T22:09:39.972Z,102051.56
2022-07-26T22:12:06.835Z,102054.78
2022-07-26T22:14:33.438Z,102045.09
2022-07-26T22:17:00.135Z,102052.66
2022-07-26T22:19:26.894Z,102049.84
2022-07-26T22:21:53.597Z,102047.84
2022-07-26T22:24:22.299Z,102052.81
2022-07-26T22:26:48.934Z,102064.81
2022-07-26T22:29:17.575Z,102067.69
2022-07-26T22:31:44.261Z,102070.91
2022-07-26T22:34:10.838Z,102071.25
2022-07-26T22:36:40.010Z,102070.66
2022-07-26T22:39:12.114Z,102070.09
2022-07-26T22:42:05.057Z,102069.41
2022-07-26T22:44:27.596Z,102046.31
2022-07-26T22:46:54.646Z,102061.75
2022-07-26T22:49:21.692Z,102058.59
2022-07-26T22:51:50.353Z,102051.13
2022-07-26T22:54:19.139Z,102067.84
2022-07-26T22:56:46.612Z,102047.50
2022-07-26T22:59:13.719Z,102057.75
2022-07-26T23:01:40.679Z,102057.63
2022-07-26T23:04:07.328Z,102060.50
2022-07-26T23:06:37.446Z,102056.22
2022-07-26T23:09:04.941Z,102054.06
2022-07-26T23:11:32.790Z,102055.22
2022-07-26T23:14:01.850Z,102053.66
2022-07-26T23:16:31.095Z,102049.47
2022-07-26T23:18:57.724Z,102061.50
2022-07-26T23:21:24.323Z,102047.50
2022-07-26T23:23:50.922Z,102056.44
2022-07-26T23:26:17.680Z,102054.69
2022-07-26T23:28:44.257Z,102050.38
2022-07-26T23:31:11.918Z,102053.84
2022-07-26T23:33:51.509Z,102052.09
2022-07-26T23:36:20.453Z,102050.53
2022-07-26T23:38:49.485Z,102053.00
2022-07-26T23:41:16.082Z,101987.16
2022-07-26T23:43:42.823Z,102060.50
2022-07-26T23:46:09.392Z,102050.38
2022-07-26T23:48:36.010Z,102039.13
2022-07-26T23:51:02.582Z,102049.94
2022-07-26T23:53:29.171Z,102059.38
2022-07-26T23:55:55.789Z,102044.34
2022-07-26T23:58:22.335Z,102031.13
